createdAt,value
2019-04-11T00:00:57.655Z,100777.02
2019-04-11T00:03:25.113Z,100773.03
2019-04-11T00:05:52.879Z,100772.34
2019-04-11T00:08:20.328Z,100771.87
2019-04-11T00:10:47.848Z,100772.92
2019-04-11T00:13:21.571Z,100777.33
2019-04-11T00:15:44.473Z,100773.93
2019-04-11T00:18:11.921Z,100776.34
2019-04-11T00:20:40.187Z,100772.80
2019-04-11T00:23:08.151Z,100771.63
2019-04-11T00:25:35.769Z,100773.67
2019-04-11T00:28:09.822Z,100779.27
2019-04-11T00:30:37.818Z,100770.98
2019-04-11T00:33:05.704Z,100779.37
2019-04-11T00:35:33.565Z,100775.35
2019-04-11T00:38:01.391Z,100777.83
2019-04-11T00:40:29.051Z,100777.66
2019-04-11T00:42:56.353Z,100778.75
2019-04-11T00:45:23.523Z,100785.21
2019-04-11T00:47:50.643Z,100783.97
2019-04-11T00:50:19.012Z,100789.44
2019-04-11T00:52:46.111Z,100780.98
2019-04-11T00:55:13.414Z,100786.06
2019-04-11T00:57:41.163Z,100782.45
2019-04-11T01:00:09.100Z,100783.08
2019-04-11T01:02:36.313Z,100787.30
2019-04-11T01:05:03.689Z,100783.69
2019-04-11T01:07:31.179Z,100790.13
2019-04-11T01:09:58.932Z,100787.20
2019-04-11T01:12:26.791Z,100789.13
2019-04-11T01:14:53.959Z,100788.50
2019-04-11T01:17:21.313Z,100794.20
2019-04-11T01:19:49.034Z,100793.80
2019-04-11T01:22:16.276Z,100801.88
2019-04-11T01:24:44.012Z,100802.23
2019-04-11T01:27:11.851Z,100799.18
2019-04-11T01:29:39.812Z,100799.41
2019-04-11T01:32:08.526Z,100808.61
2019-04-11T01:34:35.569Z,100801.27
2019-04-11T01:37:03.803Z,100797.27
2019-04-11T01:40:08.284Z,100802.31
2019-04-11T01:42:35.701Z,100798.24
2019-04-11T01:45:03.314Z,100801.55
2019-04-11T01:47:39.673Z,100800.30
2019-04-11T01:50:06.864Z,100808.95
2019-04-11T01:52:34.175Z,100808.03
2019-04-11T01:55:02.040Z,100801.28
2019-04-11T01:57:29.735Z,100798.61
2019-04-11T01:59:56.988Z,100800.91
2019-04-11T02:02:34.719Z,100803.98
2019-04-11T02:05:20.892Z,100810.80
2019-04-11T02:07:49.017Z,100808.03
2019-04-11T02:10:16.906Z,100810.92
2019-04-11T02:12:44.112Z,100811.97
2019-04-11T02:15:12.318Z,100807.81
2019-04-11T02:17:39.722Z,100810.09
2019-04-11T02:20:09.141Z,100810.58
2019-04-11T02:22:48.924Z,100806.03
2019-04-11T02:25:50.288Z,100815.76
2019-04-11T02:28:18.184Z,100815.02
2019-04-11T02:30:48.505Z,100819.38
2019-04-11T02:33:18.160Z,100818.77
2019-04-11T02:35:47.046Z,100820.09
2019-04-11T02:38:14.926Z,100818.08
2019-04-11T02:40:43.704Z,100821.98
2019-04-11T02:43:13.314Z,100823.51
2019-04-11T02:45:54.495Z,100823.50
2019-04-11T02:48:13.256Z,100831.80
2019-04-11T02:50:41.508Z,100824.59
2019-04-11T02:53:09.933Z,100835.89
2019-04-11T02:55:37.891Z,100837.40
2019-04-11T02:58:07.621Z,100839.42
2019-04-11T03:00:35.944Z,100851.47
2019-04-11T03:03:05.715Z,100851.62
2019-04-11T03:05:34.778Z,100855.43
2019-04-11T03:08:06.811Z,100849.08
2019-04-11T03:10:31.883Z,100854.17
2019-04-11T03:13:00.882Z,100859.23
2019-04-11T03:15:46.336Z,100857.54
2019-04-11T03:18:01.776Z,100870.72
2019-04-11T03:20:32.550Z,100868.94
2019-04-11T03:23:00.122Z,100873.65
2019-04-11T03:25:24.862Z,100881.94
2019-04-11T03:27:54.080Z,100886.88
2019-04-11T03:30:34.834Z,100876.75
2019-04-11T03:36:07.734Z,100889.48
2019-04-11T03:38:13.859Z,100891.43
2019-04-11T03:40:36.794Z,100887.09
2019-04-11T03:43:04.109Z,100888.11
2019-04-11T03:45:38.551Z,100893.98
2019-04-11T03:48:03.742Z,100894.75
2019-04-11T03:50:21.489Z,100898.73
2019-04-11T03:52:46.965Z,100902.25
2019-04-11T03:55:15.222Z,100905.19
2019-04-11T03:57:43.058Z,100902.13
2019-04-11T04:00:12.722Z,100912.02
2019-04-11T04:02:41.147Z,100915.07
2019-04-11T04:05:10.497Z,100914.22
2019-04-11T04:07:38.233Z,100909.61
2019-04-11T04:10:09.163Z,100922.57
2019-04-11T04:12:35.845Z,100920.16
2019-04-11T04:15:35.913Z,100929.77
2019-04-11T04:18:14.268Z,100930.94
2019-04-11T04:21:10.833Z,100937.48
2019-04-11T04:23:41.116Z,100939.84
2019-04-11T04:26:10.593Z,100938.11
2019-04-11T04:28:38.267Z,100940.12
2019-04-11T04:31:09.151Z,100933.53
2019-04-11T04:33:37.706Z,100945.10
2019-04-11T04:36:08.854Z,100953.72
2019-04-11T04:38:35.541Z,100953.72
2019-04-11T04:41:16.817Z,100948.09
2019-04-11T04:43:34.043Z,100947.89
2019-04-11T04:46:18.045Z,100959.16
2019-04-11T04:48:33.812Z,100958.36
2019-04-11T04:51:06.259Z,100953.73
2019-04-11T04:53:30.958Z,100965.30
2019-04-11T04:56:00.379Z,100970.83
2019-04-11T04:58:29.223Z,100976.52
2019-04-11T05:00:58.529Z,100985.96
2019-04-11T05:03:26.804Z,100983.80
2019-04-11T05:05:55.315Z,100993.05
2019-04-11T05:08:22.959Z,100985.97
2019-04-11T05:10:51.354Z,100991.84
2019-04-11T05:13:19.483Z,100991.78
2019-04-11T05:15:46.761Z,100983.97
2019-04-11T05:18:15.688Z,100993.80
2019-04-11T05:20:44.120Z,100986.50
2019-04-11T05:23:11.972Z,100990.30
2019-04-11T05:25:39.441Z,101000.98
2019-04-11T05:28:06.633Z,100997.64
2019-04-11T05:30:34.417Z,101000.49
2019-04-11T05:33:01.893Z,100996.55
2019-04-11T05:35:29.890Z,100995.05
2019-04-11T05:37:57.926Z,100994.55
2019-04-11T05:40:25.982Z,100996.35
2019-04-11T05:42:54.200Z,101005.89
2019-04-11T05:45:24.437Z,101009.51
2019-04-11T05:47:54.683Z,101009.64
2019-04-11T05:50:29.454Z,101003.86
2019-04-11T05:53:01.165Z,101015.48
2019-04-11T05:55:28.514Z,101012.11
2019-04-11T05:57:56.913Z,101018.33
2019-04-11T06:00:32.530Z,101006.32
2019-04-11T06:03:01.984Z,101009.66
2019-04-11T06:05:40.825Z,101008.70
2019-04-11T06:08:10.182Z,101013.63
2019-04-11T06:10:46.607Z,101011.77
2019-04-11T06:13:30.850Z,101009.25
2019-04-11T06:16:01.545Z,101011.12
2019-04-11T06:18:57.178Z,101018.02
2019-04-11T06:21:37.173Z,101016.19
2019-04-11T06:24:26.293Z,101025.36
2019-04-11T06:27:13.686Z,101025.81
2019-04-11T06:29:56.646Z,101032.63
2019-04-11T06:32:52.476Z,101026.08
2019-04-11T06:35:26.681Z,101025.57
2019-04-11T06:38:12.231Z,101029.61
2019-04-11T06:40:46.010Z,101040.45
2019-04-11T06:43:36.253Z,101036.67
2019-04-11T06:46:48.794Z,101038.22
2019-04-11T06:49:34.108Z,101046.36
2019-04-11T06:52:04.321Z,101054.91
2019-04-11T06:54:49.591Z,101055.08
2019-04-11T06:57:19.712Z,101044.18
2019-04-11T06:59:46.879Z,101057.18
2019-04-11T07:02:19.204Z,101051.94
2019-04-11T07:04:54.523Z,101058.56
2019-04-11T07:07:25.668Z,101056.66
2019-04-11T07:09:55.545Z,101062.45
2019-04-11T07:12:56.947Z,101053.17
2019-04-11T07:15:27.307Z,101054.78
2019-04-11T07:18:12.081Z,101055.18
2019-04-11T07:21:01.621Z,101053.42
2019-04-11T07:23:49.122Z,101062.17
2019-04-11T07:26:22.768Z,101054.47
2019-04-11T07:29:21.653Z,101058.67
2019-04-11T07:32:04.841Z,101053.05
2019-04-11T07:34:52.621Z,101049.44
2019-04-11T07:37:40.675Z,101055.88
2019-04-11T07:40:29.449Z,101059.07
2019-04-11T07:43:13.252Z,101050.80
2019-04-11T07:45:58.388Z,101052.16
2019-04-11T07:48:42.504Z,101052.46
2019-04-11T07:51:41.355Z,101059.54
2019-04-11T07:54:13.782Z,101056.22
2019-04-11T07:57:04.054Z,101050.14
2019-04-11T07:59:51.427Z,101054.68
2019-04-11T08:02:47.808Z,101061.24
2019-04-11T08:05:34.450Z,101071.08
2019-04-11T08:08:21.263Z,101071.13
2019-04-11T08:11:09.397Z,101055.46
2019-04-11T08:14:06.343Z,101066.66
2019-04-11T08:16:51.520Z,101076.61
2019-04-11T08:19:42.880Z,101074.56
2019-04-11T08:22:39.270Z,101054.59
2019-04-11T08:25:45.199Z,101068.95
2019-04-11T08:28:14.075Z,101052.06
2019-04-11T08:30:59.479Z,101059.12
2019-04-11T08:33:28.835Z,101061.35
2019-04-11T08:36:17.804Z,101049.39
2019-04-11T08:38:45.168Z,101052.41
2019-04-11T08:41:32.161Z,101058.62
2019-04-11T08:44:01.582Z,101056.16
2019-04-11T08:46:37.633Z,101047.98
2019-04-11T08:49:07.743Z,101044.35
2019-04-11T08:51:35.729Z,101043.37
2019-04-11T08:54:20.024Z,101047.16
2019-04-11T08:56:49.367Z,101043.66
2019-04-11T08:59:36.241Z,101044.55
2019-04-11T09:02:04.675Z,101042.52
2019-04-11T09:05:03.251Z,101044.28
2019-04-11T09:07:24.073Z,101041.30
2019-04-11T09:10:11.579Z,101033.56
2019-04-11T09:12:42.779Z,101048.62
2019-04-11T09:15:28.687Z,101050.39
2019-04-11T09:18:04.683Z,101046.82
2019-04-11T09:20:47.707Z,101040.78
2019-04-11T09:23:17.757Z,101036.63
2019-04-11T09:26:03.629Z,101047.06
2019-04-11T09:28:39.781Z,101044.73
2019-04-11T09:31:42.127Z,101039.50
2019-04-11T09:34:30.196Z,101037.30
2019-04-11T09:37:29.509Z,101040.24
2019-04-11T09:40:23.695Z,101051.45
2019-04-11T09:43:24.157Z,101038.86
2019-04-11T09:46:20.095Z,101053.18
2019-04-11T09:49:15.740Z,101052.36
2019-04-11T09:52:00.334Z,101044.44
2019-04-11T09:54:50.577Z,101049.05
2019-04-11T09:57:22.872Z,101064.50
2019-04-11T10:00:22.922Z,101055.88
2019-04-11T10:02:56.158Z,101051.69
2019-04-11T10:05:34.337Z,101054.51
2019-04-11T10:08:24.570Z,101048.86
2019-04-11T10:11:30.254Z,101045.84
2019-04-11T10:14:01.540Z,101049.42
2019-04-11T10:16:47.046Z,101053.13
2019-04-11T10:19:24.403Z,101040.47
2019-04-11T10:21:59.390Z,101039.93
2019-04-11T10:24:52.518Z,101044.94
2019-04-11T10:27:55.244Z,101045.27
2019-04-11T10:30:40.373Z,101032.81
2019-04-11T10:33:15.296Z,101043.72
2019-04-11T10:36:01.007Z,101029.00
2019-04-11T10:38:28.752Z,101042.33
2019-04-11T10:41:04.727Z,101048.49
2019-04-11T10:43:32.243Z,101024.50
2019-04-11T10:46:27.799Z,101045.38
2019-04-11T10:49:03.323Z,101017.44
2019-04-11T10:51:50.230Z,101027.75
2019-04-11T10:54:17.552Z,101027.91
2019-04-11T10:56:57.872Z,101025.84
2019-04-11T10:59:27.959Z,101032.09
2019-04-11T11:02:04.508Z,101011.83
2019-04-11T11:04:37.249Z,101022.61
2019-04-11T11:07:11.497Z,101026.21
2019-04-11T11:09:46.718Z,101023.18
2019-04-11T11:12:32.943Z,101020.96
2019-04-11T11:15:20.407Z,101023.95
2019-04-11T11:18:35.148Z,101030.67
2019-04-11T11:21:03.602Z,101020.95
2019-04-11T11:23:49.282Z,101015.17
2019-04-11T11:26:29.410Z,101013.09
2019-04-11T11:29:16.771Z,101020.63
2019-04-11T11:32:09.644Z,101015.00
2019-04-11T11:34:55.104Z,101015.89
2019-04-11T11:38:00.047Z,101031.78
2019-04-11T11:40:50.061Z,101024.97
2019-04-11T11:43:28.535Z,101029.14
2019-04-11T11:46:14.190Z,101029.78
2019-04-11T11:48:47.279Z,101029.90
2019-04-11T11:51:33.262Z,101022.16
2019-04-11T11:54:08.651Z,101031.78
2019-04-11T11:56:38.107Z,101037.33
2019-04-11T11:59:24.893Z,101030.58
2019-04-11T12:01:55.863Z,101047.67
2019-04-11T12:04:51.995Z,101035.62
2019-04-11T12:07:22.990Z,101028.72
2019-04-11T12:10:09.101Z,101021.04
2019-04-11T12:12:46.503Z,101052.89
2019-04-11T12:15:39.419Z,101031.95
2019-04-11T12:18:24.611Z,101030.31
2019-04-11T12:20:58.778Z,101043.95
2019-04-11T12:23:55.573Z,101054.65
2019-04-11T12:26:14.219Z,101028.27
2019-04-11T12:28:59.716Z,101032.56
2019-04-11T12:31:28.714Z,101034.34
2019-04-11T12:34:14.569Z,101022.07
2019-04-11T12:36:46.976Z,101039.48
2019-04-11T12:39:37.956Z,101036.39
2019-04-11T12:42:12.762Z,101023.00
2019-04-11T12:45:08.458Z,101014.64
2019-04-11T12:48:03.953Z,101038.91
2019-04-11T12:50:49.289Z,101015.16
2019-04-11T12:53:18.418Z,101030.14
2019-04-11T12:56:10.108Z,101032.01
2019-04-11T12:58:52.779Z,101021.14
2019-04-11T13:01:52.182Z,101036.20
2019-04-11T13:04:25.551Z,101010.20
2019-04-11T13:07:20.895Z,101012.54
2019-04-11T13:09:55.918Z,100999.80
2019-04-11T13:13:00.575Z,101002.23
2019-04-11T13:15:36.932Z,100996.61
2019-04-11T13:18:12.059Z,100998.28
2019-04-11T13:20:51.870Z,100996.97
2019-04-11T13:23:37.026Z,101012.05
2019-04-11T13:26:20.659Z,101006.67
2019-04-11T13:28:53.054Z,100999.70
2019-04-11T13:31:38.070Z,100994.33
2019-04-11T13:34:06.190Z,100988.83
2019-04-11T13:36:53.909Z,100992.39
2019-04-11T13:39:21.131Z,100990.56
2019-04-11T13:42:22.962Z,100992.89
2019-04-11T13:44:50.068Z,100987.26
2019-04-11T13:47:49.264Z,100995.28
2019-04-11T13:50:17.789Z,100983.16
2019-04-11T13:53:10.631Z,101000.35
2019-04-11T13:55:42.049Z,100991.93
2019-04-11T13:58:34.330Z,100993.86
2019-04-11T14:01:07.379Z,101000.42
2019-04-11T14:03:58.148Z,100990.06
2019-04-11T14:06:32.808Z,100982.30
2019-04-11T14:09:24.035Z,100992.14
2019-04-11T14:11:53.540Z,100983.15
2019-04-11T14:14:26.566Z,100980.38
2019-04-11T14:17:12.020Z,100992.14
2019-04-11T14:19:58.050Z,100978.12
2019-04-11T14:22:29.675Z,100969.34
2019-04-11T14:25:22.892Z,100972.34
2019-04-11T14:27:52.423Z,100977.27
2019-04-11T14:30:42.250Z,100979.15
2019-04-11T14:33:09.807Z,100967.88
2019-04-11T14:36:02.485Z,100970.91
2019-04-11T14:38:32.051Z,100975.59
2019-04-11T14:41:24.448Z,100983.27
2019-04-11T14:43:57.961Z,100995.14
2019-04-11T14:47:06.666Z,100974.83
2019-04-11T14:49:31.999Z,100982.14
2019-04-11T14:52:37.131Z,100984.12
2019-04-11T14:55:04.732Z,100971.12
2019-04-11T14:57:54.492Z,100972.80
2019-04-11T15:00:30.991Z,100970.91
2019-04-11T15:03:12.547Z,100977.52
2019-04-11T15:05:59.463Z,100970.43
2019-04-11T15:08:49.251Z,100969.11
2019-04-11T15:11:37.200Z,100969.64
2019-04-11T15:14:13.020Z,100980.28
2019-04-11T15:17:03.176Z,100971.18
2019-04-11T15:19:30.349Z,100970.69
2019-04-11T15:22:15.956Z,100974.64
2019-04-11T15:24:44.837Z,100984.38
2019-04-11T15:27:30.365Z,100977.52
2019-04-11T15:29:58.774Z,100981.41
2019-04-11T15:32:54.385Z,100978.71
2019-04-11T15:35:21.961Z,100979.81
2019-04-11T15:37:58.157Z,100968.77
2019-04-11T15:40:31.423Z,100985.92
2019-04-11T15:43:16.696Z,100968.93
2019-04-11T15:46:03.466Z,100976.14
2019-04-11T15:49:02.436Z,100973.23
2019-04-11T15:51:38.236Z,100973.42
2019-04-11T15:54:25.115Z,100973.78
2019-04-11T15:57:05.935Z,100982.55
2019-04-11T15:59:55.849Z,100978.95
2019-04-11T16:02:41.058Z,100973.41
2019-04-11T16:05:26.502Z,100973.70
2019-04-11T16:08:19.333Z,100971.03
2019-04-11T16:11:04.461Z,100968.66
2019-04-11T16:13:43.780Z,100979.02
2019-04-11T16:16:12.200Z,100979.72
2019-04-11T16:18:57.998Z,100986.23
2019-04-11T16:21:34.379Z,100978.91
2019-04-11T16:24:07.501Z,100980.69
2019-04-11T16:26:46.016Z,100972.75
2019-04-11T16:29:23.341Z,100973.55
2019-04-11T16:31:50.901Z,100980.47
2019-04-11T16:34:48.363Z,100987.92
2019-04-11T16:37:10.639Z,100985.98
2019-04-11T16:39:55.910Z,100988.55
2019-04-11T16:42:32.381Z,100989.37
2019-04-11T16:45:24.721Z,100992.44
2019-04-11T16:48:09.251Z,100995.41
2019-04-11T16:50:36.450Z,100991.28
2019-04-11T16:53:03.827Z,101002.94
2019-04-11T16:55:31.010Z,101003.20
2019-04-11T16:57:58.086Z,101010.45
2019-04-11T17:00:25.555Z,101015.05
2019-04-11T17:02:54.882Z,101006.98
2019-04-11T17:05:24.093Z,101023.34
2019-04-11T17:08:10.761Z,101008.55
2019-04-11T17:10:57.540Z,101021.03
2019-04-11T17:13:25.994Z,101037.83
2019-04-11T17:15:53.817Z,101024.14
2019-04-11T17:18:20.996Z,101018.19
2019-04-11T17:20:48.118Z,101030.50
2019-04-11T17:23:17.245Z,101022.86
2019-04-11T17:25:44.493Z,101030.58
2019-04-11T17:28:11.682Z,101033.89
2019-04-11T17:30:38.890Z,101027.56
2019-04-11T17:33:05.987Z,101030.41
2019-04-11T17:35:33.091Z,101029.23
2019-04-11T17:38:01.102Z,101036.63
2019-04-11T17:40:29.758Z,101044.39
2019-04-11T17:42:57.899Z,101036.14
2019-04-11T17:45:25.402Z,101041.88
2019-04-11T17:47:54.798Z,101039.73
2019-04-11T17:50:21.768Z,101046.33
2019-04-11T17:52:49.228Z,101041.86
2019-04-11T17:55:16.374Z,101047.59
2019-04-11T17:57:43.569Z,101056.63
2019-04-11T18:00:16.267Z,101048.89
2019-04-11T18:02:46.247Z,101052.72
2019-04-11T18:05:16.729Z,101054.14
2019-04-11T18:07:41.722Z,101056.41
2019-04-11T18:10:09.475Z,101064.09
2019-04-11T18:12:36.638Z,101068.97
2019-04-11T18:15:03.968Z,101070.39
2019-04-11T18:17:32.698Z,101074.41
2019-04-11T18:20:00.587Z,101077.98
2019-04-11T18:22:27.765Z,101079.68
2019-04-11T18:24:55.004Z,101076.47
2019-04-11T18:27:22.554Z,101078.45
2019-04-11T18:29:52.616Z,101076.95
2019-04-11T18:32:18.888Z,101087.84
2019-04-11T18:34:46.355Z,101091.79
2019-04-11T18:37:13.445Z,101089.16
2019-04-11T18:39:43.420Z,101100.71
2019-04-11T18:42:11.333Z,101111.61
2019-04-11T18:44:38.578Z,101108.45
2019-04-11T18:47:05.791Z,101112.88
2019-04-11T18:49:33.003Z,101117.15
2019-04-11T18:52:00.164Z,101122.39
2019-04-11T18:54:27.422Z,101124.25
2019-04-11T18:56:54.578Z,101126.58
2019-04-11T18:59:21.819Z,101131.83
2019-04-11T19:01:49.030Z,101135.66
2019-04-11T19:04:16.342Z,101141.17
2019-04-11T19:06:43.741Z,101145.64
2019-04-11T19:09:14.197Z,101141.67
2019-04-11T19:11:43.858Z,101146.24
2019-04-11T19:14:11.233Z,101157.70
2019-04-11T19:16:38.479Z,101154.59
2019-04-11T19:19:05.542Z,101161.45
2019-04-11T19:21:32.857Z,101156.13
2019-04-11T19:24:00.747Z,101159.19
2019-04-11T19:26:28.138Z,101162.92
2019-04-11T19:28:55.766Z,101165.91
2019-04-11T19:31:27.464Z,101171.34
2019-04-11T19:33:52.073Z,101175.92
2019-04-11T19:36:19.313Z,101174.59
2019-04-11T19:38:46.958Z,101175.72
2019-04-11T19:41:17.962Z,101182.15
2019-04-11T19:43:48.763Z,101185.84
2019-04-11T19:46:17.992Z,101185.84
2019-04-11T19:48:45.345Z,101181.02
2019-04-11T19:51:12.565Z,101172.61
2019-04-11T19:53:39.865Z,101179.97
2019-04-11T19:56:18.096Z,101187.89
2019-04-11T19:58:45.321Z,101198.57
2019-04-11T20:01:12.842Z,101186.89
2019-04-11T20:03:40.009Z,101184.58
2019-04-11T20:06:07.257Z,101186.69
2019-04-11T20:08:34.478Z,101187.14
2019-04-11T20:11:01.996Z,101194.70
2019-04-11T20:13:31.972Z,101193.88
2019-04-11T20:15:58.537Z,101193.61
2019-04-11T20:18:26.287Z,101188.72
2019-04-11T20:20:53.403Z,101184.61
2019-04-11T20:23:20.988Z,101192.24
2019-04-11T20:25:49.806Z,101187.92
2019-04-11T20:28:19.723Z,101189.54
2019-04-11T20:30:46.496Z,101197.06
2019-04-11T20:33:13.896Z,101197.83
2019-04-11T20:35:41.052Z,101191.50
2019-04-11T20:38:08.237Z,101199.37
2019-04-11T20:40:35.575Z,101204.80
2019-04-11T20:43:02.760Z,101207.89
2019-04-11T20:45:32.224Z,101200.91
2019-04-11T20:48:00.262Z,101206.36
2019-04-11T20:50:28.211Z,101215.83
2019-04-11T20:52:55.287Z,101201.00
2019-04-11T20:55:22.461Z,101211.65
2019-04-11T20:57:49.571Z,101205.46
2019-04-11T21:00:17.044Z,101213.28
2019-04-11T21:02:44.259Z,101213.67
2019-04-11T21:05:12.075Z,101216.59
2019-04-11T21:07:39.311Z,101208.86
2019-04-11T21:10:06.649Z,101212.27
2019-04-11T21:12:37.063Z,101214.33
2019-04-11T21:15:03.437Z,101216.05
2019-04-11T21:17:30.684Z,101217.50
2019-04-11T21:19:58.234Z,101213.23
2019-04-11T21:22:25.419Z,101218.27
2019-04-11T21:24:52.599Z,101217.31
2019-04-11T21:27:19.819Z,101220.49
2019-04-11T21:29:47.323Z,101222.35
2019-04-11T21:32:14.592Z,101222.55
2019-04-11T21:34:41.933Z,101225.09
2019-04-11T21:37:09.158Z,101226.70
2019-04-11T21:39:36.250Z,101224.77
2019-04-11T21:42:05.896Z,101228.14
2019-04-11T21:44:35.958Z,101233.81
2019-04-11T21:47:01.657Z,101226.04
2019-04-11T21:49:29.256Z,101236.36
2019-04-11T21:51:56.419Z,101235.00
2019-04-11T21:54:23.891Z,101240.00
2019-04-11T21:56:51.107Z,101240.38
2019-04-11T21:59:20.418Z,101239.45
2019-04-11T22:01:47.539Z,101240.09
2019-04-11T22:04:14.859Z,101243.80
2019-04-11T22:06:42.039Z,101247.48
2019-04-11T22:09:09.428Z,101249.10
2019-04-11T22:11:38.389Z,101254.84
2019-04-11T22:14:05.979Z,101253.38
2019-04-11T22:16:33.041Z,101252.89
2019-04-11T22:19:00.535Z,101251.23
2019-04-11T22:21:27.608Z,101250.61
2019-04-11T22:23:54.788Z,101251.58
2019-04-11T22:26:21.989Z,101255.45
2019-04-11T22:28:49.554Z,101251.61
2019-04-11T22:31:16.728Z,101253.55
2019-04-11T22:33:47.715Z,101254.83
2019-04-11T22:36:14.902Z,101258.61
2019-04-11T22:38:42.317Z,101264.00
2019-04-11T22:41:09.565Z,101262.97
2019-04-11T22:43:38.158Z,101262.70
2019-04-11T22:46:08.025Z,101264.39
2019-04-11T22:48:36.774Z,101260.62
2019-04-11T22:51:04.317Z,101268.30
2019-04-11T22:53:31.533Z,101272.20
2019-04-11T22:55:58.740Z,101262.41
2019-04-11T22:58:26.215Z,101265.88
2019-04-11T23:00:53.390Z,101264.74
2019-04-11T23:03:27.889Z,101270.56
2019-04-11T23:05:54.931Z,101267.52
2019-04-11T23:08:21.995Z,101271.42
2019-04-11T23:10:49.212Z,101271.59
2019-04-11T23:13:16.481Z,101266.78
2019-04-11T23:15:44.459Z,101272.38
2019-04-11T23:18:13.974Z,101272.72
2019-04-11T23:20:43.815Z,101268.91
2019-04-11T23:23:11.102Z,101278.67
2019-04-11T23:25:39.068Z,101280.23
2019-04-11T23:28:06.237Z,101279.23
2019-04-11T23:30:33.376Z,101278.02
2019-04-11T23:33:00.547Z,101274.98
2019-04-11T23:35:27.703Z,101278.23
2019-04-11T23:37:55.275Z,101279.70
2019-04-11T23:40:22.490Z,101275.92
2019-04-11T23:42:50.772Z,101276.88
2019-04-11T23:45:21.763Z,101279.09
2019-04-11T23:47:53.197Z,101278.70
2019-04-11T23:50:17.798Z,101271.72
2019-04-11T23:52:45.067Z,101278.13
2019-04-11T23:55:12.255Z,101283.38
2019-04-11T23:57:39.402Z,101281.03
